sensor_id;sensor_type;location;lat;lon;timestamp;P1;durP1;ratioP1;P2;durP2;ratioP2
26612;SDS011;14248;57.652;11.908;2023-04-15T00:01:23;7.68;;;5.32;;
26612;SDS011;14248;57.652;11.908;2023-04-15T00:03:50;7.97;;;4.90;;
26612;SDS011;14248;57.652;11.908;2023-04-15T00:06:17;9.32;;;5.38;;
26612;SDS011;14248;57.652;11.908;2023-04-15T00:08:46;6.95;;;5.32;;
26612;SDS011;14248;57.652;11.908;2023-04-15T00:11:12;8.80;;;5.07;;
26612;SDS011;14248;57.652;11.908;2023-04-15T00:13:39;7.50;;;5.18;;
26612;SDS011;14248;57.652;11.908;2023-04-15T00:16:05;7.40;;;4.90;;
26612;SDS011;14248;57.652;11.908;2023-04-15T00:18:32;6.78;;;5.05;;
26612;SDS011;14248;57.652;11.908;2023-04-15T00:20:58;7.78;;;5.47;;
26612;SDS011;14248;57.652;11.908;2023-04-15T00:23:24;7.55;;;4.82;;
26612;SDS011;14248;57.652;11.908;2023-04-15T00:25:51;7.63;;;5.28;;
26612;SDS011;14248;57.652;11.908;2023-04-15T00:28:17;6.55;;;4.85;;
26612;SDS011;14248;57.652;11.908;2023-04-15T00:30:43;7.15;;;5.45;;
26612;SDS011;14248;57.652;11.908;2023-04-15T00:33:13;6.97;;;4.88;;
26612;SDS011;14248;57.652;11.908;2023-04-15T00:38:09;7.65;;;5.18;;
26612;SDS011;14248;57.652;11.908;2023-04-15T00:40:36;7.43;;;4.88;;
26612;SDS011;14248;57.652;11.908;2023-04-15T00:43:02;8.52;;;5.30;;
26612;SDS011;14248;57.652;11.908;2023-04-15T00:45:28;7.45;;;5.20;;
26612;SDS011;14248;57.652;11.908;2023-04-15T00:47:54;7.35;;;4.75;;
26612;SDS011;14248;57.652;11.908;2023-04-15T00:50:21;8.50;;;5.22;;
26612;SDS011;14248;57.652;11.908;2023-04-15T00:52:47;7.20;;;4.72;;
26612;SDS011;14248;57.652;11.908;2023-04-15T00:55:13;7.20;;;5.00;;
26612;SDS011;14248;57.652;11.908;2023-04-15T00:57:39;8.85;;;5.35;;
26612;SDS011;14248;57.652;11.908;2023-04-15T01:00:05;7.88;;;5.30;;
26612;SDS011;14248;57.652;11.908;2023-04-15T01:02:33;6.63;;;4.80;;
26612;SDS011;14248;57.652;11.908;2023-04-15T01:04:59;8.80;;;5.32;;
26612;SDS011;14248;57.652;11.908;2023-04-15T01:07:25;8.95;;;5.47;;
26612;SDS011;14248;57.652;11.908;2023-04-15T01:09:51;6.97;;;5.30;;
26612;SDS011;14248;57.652;11.908;2023-04-15T01:12:18;7.25;;;5.15;;
26612;SDS011;14248;57.652;11.908;2023-04-15T01:14:45;7.45;;;4.82;;
26612;SDS011;14248;57.652;11.908;2023-04-15T01:17:11;6.72;;;4.97;;
26612;SDS011;14248;57.652;11.908;2023-04-15T01:19:37;8.65;;;5.50;;
26612;SDS011;14248;57.652;11.908;2023-04-15T01:22:04;9.35;;;5.97;;
26612;SDS011;14248;57.652;11.908;2023-04-15T01:24:33;8.75;;;6.07;;
26612;SDS011;14248;57.652;11.908;2023-04-15T01:26:59;7.03;;;5.28;;
26612;SDS011;14248;57.652;11.908;2023-04-15T01:29:26;6.07;;;5.00;;
26612;SDS011;14248;57.652;11.908;2023-04-15T01:31:53;7.47;;;5.28;;
26612;SDS011;14248;57.652;11.908;2023-04-15T01:34:20;7.03;;;4.90;;
26612;SDS011;14248;57.652;11.908;2023-04-15T01:36:46;7.18;;;5.13;;
26612;SDS011;14248;57.652;11.908;2023-04-15T01:39:12;7.57;;;5.15;;
26612;SDS011;14248;57.652;11.908;2023-04-15T01:41:38;7.47;;;5.10;;
26612;SDS011;14248;57.652;11.908;2023-04-15T01:44:06;6.68;;;5.20;;
26612;SDS011;14248;57.652;11.908;2023-04-15T01:46:32;8.07;;;5.38;;
26612;SDS011;14248;57.652;11.908;2023-04-15T01:48:59;6.55;;;5.10;;
26612;SDS011;14248;57.652;11.908;2023-04-15T01:51:25;8.27;;;5.43;;
26612;SDS011;14248;57.652;11.908;2023-04-15T01:53:51;6.40;;;5.15;;
26612;SDS011;14248;57.652;11.908;2023-04-15T01:56:20;6.43;;;4.80;;
26612;SDS011;14248;57.652;11.908;2023-04-15T01:58:48;7.57;;;5.15;;
26612;SDS011;14248;57.652;11.908;2023-04-15T02:01:14;7.28;;;5.18;;
26612;SDS011;14248;57.652;11.908;2023-04-15T02:03:41;7.20;;;4.93;;
26612;SDS011;14248;57.652;11.908;2023-04-15T02:06:07;7.43;;;4.85;;
26612;SDS011;14248;57.652;11.908;2023-04-15T02:08:33;7.15;;;4.45;;
26612;SDS011;14248;57.652;11.908;2023-04-15T02:10:59;7.95;;;5.00;;
26612;SDS011;14248;57.652;11.908;2023-04-15T02:13:25;7.32;;;4.47;;
26612;SDS011;14248;57.652;11.908;2023-04-15T02:15:53;6.60;;;4.38;;
26612;SDS011;14248;57.652;11.908;2023-04-15T02:18:19;7.22;;;4.70;;
26612;SDS011;14248;57.652;11.908;2023-04-15T02:20:46;5.82;;;4.50;;
26612;SDS011;14248;57.652;11.908;2023-04-15T02:23:12;5.57;;;4.30;;
26612;SDS011;14248;57.652;11.908;2023-04-15T02:25:39;7.97;;;5.00;;
26612;SDS011;14248;57.652;11.908;2023-04-15T02:28:05;8.18;;;4.65;;
26612;SDS011;14248;57.652;11.908;2023-04-15T02:30:31;9.82;;;5.00;;
26612;SDS011;14248;57.652;11.908;2023-04-15T02:32:58;7.43;;;5.05;;
26612;SDS011;14248;57.652;11.908;2023-04-15T02:35:24;6.75;;;4.93;;
26612;SDS011;14248;57.652;11.908;2023-04-15T02:37:50;6.95;;;4.95;;
26612;SDS011;14248;57.652;11.908;2023-04-15T02:40:16;6.82;;;4.90;;
26612;SDS011;14248;57.652;11.908;2023-04-15T02:42:43;7.35;;;4.90;;
26612;SDS011;14248;57.652;11.908;2023-04-15T02:45:09;7.10;;;4.57;;
26612;SDS011;14248;57.652;11.908;2023-04-15T02:47:36;6.75;;;4.50;;
26612;SDS011;14248;57.652;11.908;2023-04-15T02:50:10;7.60;;;4.60;;
26612;SDS011;14248;57.652;11.908;2023-04-15T02:52:40;7.90;;;5.35;;
26612;SDS011;14248;57.652;11.908;2023-04-15T02:55:06;6.32;;;4.82;;
26612;SDS011;14248;57.652;11.908;2023-04-15T02:57:33;6.25;;;4.60;;
26612;SDS011;14248;57.652;11.908;2023-04-15T03:00:01;5.00;;;4.22;;
26612;SDS011;14248;57.652;11.908;2023-04-15T03:02:32;6.22;;;4.63;;
26612;SDS011;14248;57.652;11.908;2023-04-15T03:04:59;5.68;;;4.80;;
26612;SDS011;14248;57.652;11.908;2023-04-15T03:07:25;6.53;;;4.82;;
26612;SDS011;14248;57.652;11.908;2023-04-15T03:09:51;7.38;;;4.70;;
26612;SDS011;14248;57.652;11.908;2023-04-15T03:12:17;9.15;;;5.22;;
26612;SDS011;14248;57.652;11.908;2023-04-15T03:14:43;7.25;;;5.20;;
26612;SDS011;14248;57.652;11.908;2023-04-15T03:17:09;5.95;;;4.90;;
26612;SDS011;14248;57.652;11.908;2023-04-15T03:19:35;6.82;;;5.50;;
26612;SDS011;14248;57.652;11.908;2023-04-15T03:22:01;8.05;;;5.25;;
26612;SDS011;14248;57.652;11.908;2023-04-15T03:24:27;6.38;;;5.18;;
26612;SDS011;14248;57.652;11.908;2023-04-15T03:26:54;7.25;;;5.50;;
26612;SDS011;14248;57.652;11.908;2023-04-15T03:29:21;7.30;;;5.55;;
26612;SDS011;14248;57.652;11.908;2023-04-15T03:31:47;6.88;;;5.50;;
26612;SDS011;14248;57.652;11.908;2023-04-15T03:34:14;8.23;;;5.43;;
26612;SDS011;14248;57.652;11.908;2023-04-15T03:36:40;6.32;;;4.93;;
26612;SDS011;14248;57.652;11.908;2023-04-15T03:39:06;8.45;;;5.80;;
26612;SDS011;14248;57.652;11.908;2023-04-15T03:41:32;6.80;;;5.25;;
26612;SDS011;14248;57.652;11.908;2023-04-15T03:43:58;9.30;;;5.28;;
26612;SDS011;14248;57.652;11.908;2023-04-15T03:46:24;8.25;;;5.35;;
26612;SDS011;14248;57.652;11.908;2023-04-15T03:48:50;6.60;;;5.57;;
26612;SDS011;14248;57.652;11.908;2023-04-15T03:51:16;7.78;;;5.60;;
26612;SDS011;14248;57.652;11.908;2023-04-15T03:53:42;8.02;;;5.45;;
26612;SDS011;14248;57.652;11.908;2023-04-15T03:56:08;7.38;;;5.10;;
26612;SDS011;14248;57.652;11.908;2023-04-15T03:58:34;7.55;;;5.40;;
26612;SDS011;14248;57.652;11.908;2023-04-15T04:01:01;6.65;;;5.35;;
26612;SDS011;14248;57.652;11.908;2023-04-15T04:03:28;6.80;;;5.35;;
26612;SDS011;14248;57.652;11.908;2023-04-15T04:05:54;6.97;;;5.25;;
26612;SDS011;14248;57.652;11.908;2023-04-15T04:08:20;8.55;;;5.63;;
26612;SDS011;14248;57.652;11.908;2023-04-15T04:10:46;7.63;;;5.65;;
26612;SDS011;14248;57.652;11.908;2023-04-15T04:13:12;6.85;;;5.78;;
26612;SDS011;14248;57.652;11.908;2023-04-15T04:15:38;9.50;;;5.80;;
26612;SDS011;14248;57.652;11.908;2023-04-15T04:18:04;7.97;;;5.88;;
26612;SDS011;14248;57.652;11.908;2023-04-15T04:20:30;6.70;;;5.93;;
26612;SDS011;14248;57.652;11.908;2023-04-15T04:22:56;9.43;;;6.03;;
26612;SDS011;14248;57.652;11.908;2023-04-15T04:25:23;9.73;;;5.75;;
26612;SDS011;14248;57.652;11.908;2023-04-15T04:27:49;9.73;;;6.03;;
26612;SDS011;14248;57.652;11.908;2023-04-15T04:30:15;10.63;;;6.07;;
26612;SDS011;14248;57.652;11.908;2023-04-15T04:32:41;8.38;;;5.68;;
26612;SDS011;14248;57.652;11.908;2023-04-15T04:35:07;8.00;;;5.85;;
26612;SDS011;14248;57.652;11.908;2023-04-15T04:37:34;11.13;;;6.18;;
26612;SDS011;14248;57.652;11.908;2023-04-15T04:40:00;10.32;;;5.95;;
26612;SDS011;14248;57.652;11.908;2023-04-15T04:42:26;8.27;;;6.55;;
26612;SDS011;14248;57.652;11.908;2023-04-15T04:44:52;9.10;;;5.90;;
26612;SDS011;14248;57.652;11.908;2023-04-15T04:47:18;7.15;;;5.63;;
26612;SDS011;14248;57.652;11.908;2023-04-15T04:49:44;9.20;;;5.60;;
26612;SDS011;14248;57.652;11.908;2023-04-15T04:52:10;8.82;;;6.40;;
26612;SDS011;14248;57.652;11.908;2023-04-15T04:54:36;7.40;;;5.50;;
26612;SDS011;14248;57.652;11.908;2023-04-15T04:57:02;9.00;;;5.78;;
26612;SDS011;14248;57.652;11.908;2023-04-15T04:59:28;8.88;;;6.28;;
26612;SDS011;14248;57.652;11.908;2023-04-15T05:01:54;8.45;;;6.18;;
26612;SDS011;14248;57.652;11.908;2023-04-15T05:04:20;8.20;;;6.03;;
26612;SDS011;14248;57.652;11.908;2023-04-15T05:06:47;8.23;;;5.85;;
26612;SDS011;14248;57.652;11.908;2023-04-15T05:09:13;10.40;;;5.85;;
26612;SDS011;14248;57.652;11.908;2023-04-15T05:11:39;8.63;;;5.82;;
26612;SDS011;14248;57.652;11.908;2023-04-15T05:14:05;8.32;;;6.15;;
26612;SDS011;14248;57.652;11.908;2023-04-15T05:16:31;9.73;;;6.40;;
26612;SDS011;14248;57.652;11.908;2023-04-15T05:18:57;8.80;;;5.78;;
26612;SDS011;14248;57.652;11.908;2023-04-15T05:21:23;7.18;;;5.63;;
26612;SDS011;14248;57.652;11.908;2023-04-15T05:23:50;7.80;;;5.53;;
26612;SDS011;14248;57.652;11.908;2023-04-15T05:26:16;6.78;;;5.60;;
26612;SDS011;14248;57.652;11.908;2023-04-15T05:28:42;7.70;;;5.30;;
26612;SDS011;14248;57.652;11.908;2023-04-15T05:31:08;9.35;;;5.60;;
26612;SDS011;14248;57.652;11.908;2023-04-15T05:33:34;7.28;;;5.82;;
26612;SDS011;14248;57.652;11.908;2023-04-15T05:36:01;8.43;;;5.90;;
26612;SDS011;14248;57.652;11.908;2023-04-15T05:38:27;9.90;;;6.50;;
26612;SDS011;14248;57.652;11.908;2023-04-15T05:40:53;10.57;;;6.03;;
26612;SDS011;14248;57.652;11.908;2023-04-15T05:43:19;9.57;;;5.93;;
26612;SDS011;14248;57.652;11.908;2023-04-15T05:45:45;6.28;;;5.05;;
26612;SDS011;14248;57.652;11.908;2023-04-15T05:48:11;8.75;;;5.25;;
26612;SDS011;14248;57.652;11.908;2023-04-15T05:50:39;6.20;;;5.05;;
26612;SDS011;14248;57.652;11.908;2023-04-15T05:53:06;6.70;;;4.57;;
26612;SDS011;14248;57.652;11.908;2023-04-15T05:55:32;9.60;;;5.20;;
26612;SDS011;14248;57.652;11.908;2023-04-15T05:57:58;11.43;;;5.90;;
26612;SDS011;14248;57.652;11.908;2023-04-15T06:00:24;8.60;;;5.47;;
26612;SDS011;14248;57.652;11.908;2023-04-15T06:02:51;8.35;;;4.93;;
26612;SDS011;14248;57.652;11.908;2023-04-15T06:05:17;8.93;;;5.10;;
26612;SDS011;14248;57.652;11.908;2023-04-15T06:10:13;6.88;;;5.25;;
26612;SDS011;14248;57.652;11.908;2023-04-15T06:12:39;8.60;;;5.53;;
26612;SDS011;14248;57.652;11.908;2023-04-15T06:15:06;9.65;;;6.35;;
26612;SDS011;14248;57.652;11.908;2023-04-15T06:17:34;10.95;;;6.10;;
26612;SDS011;14248;57.652;11.908;2023-04-15T06:20:01;10.68;;;6.45;;
26612;SDS011;14248;57.652;11.908;2023-04-15T06:22:27;9.38;;;5.70;;
26612;SDS011;14248;57.652;11.908;2023-04-15T06:24:53;8.18;;;6.00;;
26612;SDS011;14248;57.652;11.908;2023-04-15T06:27:19;9.55;;;6.47;;
26612;SDS011;14248;57.652;11.908;2023-04-15T06:29:45;9.15;;;5.90;;
26612;SDS011;14248;57.652;11.908;2023-04-15T06:32:11;9.43;;;6.15;;
26612;SDS011;14248;57.652;11.908;2023-04-15T06:34:37;8.88;;;5.90;;
26612;SDS011;14248;57.652;11.908;2023-04-15T06:37:03;8.45;;;5.88;;
26612;SDS011;14248;57.652;11.908;2023-04-15T06:39:29;9.00;;;5.40;;
26612;SDS011;14248;57.652;11.908;2023-04-15T06:41:56;7.35;;;5.40;;
26612;SDS011;14248;57.652;11.908;2023-04-15T06:44:22;8.75;;;5.60;;
26612;SDS011;14248;57.652;11.908;2023-04-15T06:46:49;10.43;;;5.32;;
26612;SDS011;14248;57.652;11.908;2023-04-15T06:49:15;10.57;;;5.43;;
26612;SDS011;14248;57.652;11.908;2023-04-15T06:51:41;9.85;;;5.78;;
26612;SDS011;14248;57.652;11.908;2023-04-15T06:54:07;9.50;;;5.30;;
26612;SDS011;14248;57.652;11.908;2023-04-15T06:56:33;9.98;;;5.47;;
26612;SDS011;14248;57.652;11.908;2023-04-15T06:58:59;9.02;;;5.80;;
26612;SDS011;14248;57.652;11.908;2023-04-15T07:01:27;12.38;;;5.70;;
26612;SDS011;14248;57.652;11.908;2023-04-15T07:03:53;7.47;;;5.60;;
26612;SDS011;14248;57.652;11.908;2023-04-15T07:06:20;8.70;;;5.57;;
26612;SDS011;14248;57.652;11.908;2023-04-15T07:08:46;9.88;;;6.15;;
26612;SDS011;14248;57.652;11.908;2023-04-15T07:11:12;11.05;;;6.18;;
26612;SDS011;14248;57.652;11.908;2023-04-15T07:13:39;9.43;;;6.20;;
26612;SDS011;14248;57.652;11.908;2023-04-15T07:16:05;10.07;;;6.03;;
26612;SDS011;14248;57.652;11.908;2023-04-15T07:18:31;10.50;;;6.43;;
26612;SDS011;14248;57.652;11.908;2023-04-15T07:20:57;8.30;;;6.18;;
26612;SDS011;14248;57.652;11.908;2023-04-15T07:23:23;8.77;;;6.55;;
26612;SDS011;14248;57.652;11.908;2023-04-15T07:25:50;9.05;;;6.03;;
26612;SDS011;14248;57.652;11.908;2023-04-15T07:28:17;10.90;;;6.40;;
26612;SDS011;14248;57.652;11.908;2023-04-15T07:30:43;7.88;;;6.07;;
26612;SDS011;14248;57.652;11.908;2023-04-15T07:33:09;8.05;;;5.80;;
26612;SDS011;14248;57.652;11.908;2023-04-15T07:35:35;11.40;;;6.55;;
26612;SDS011;14248;57.652;11.908;2023-04-15T07:38:02;9.32;;;6.00;;
26612;SDS011;14248;57.652;11.908;2023-04-15T07:40:28;8.73;;;6.32;;
26612;SDS011;14248;57.652;11.908;2023-04-15T07:42:57;9.55;;;6.60;;
26612;SDS011;14248;57.652;11.908;2023-04-15T07:45:23;12.88;;;6.30;;
26612;SDS011;14248;57.652;11.908;2023-04-15T07:47:49;10.38;;;6.93;;
26612;SDS011;14248;57.652;11.908;2023-04-15T07:50:16;12.60;;;7.20;;
26612;SDS011;14248;57.652;11.908;2023-04-15T07:52:43;8.55;;;5.93;;
26612;SDS011;14248;57.652;11.908;2023-04-15T07:55:10;10.75;;;6.68;;
26612;SDS011;14248;57.652;11.908;2023-04-15T07:57:36;11.57;;;7.15;;
26612;SDS011;14248;57.652;11.908;2023-04-15T08:00:02;10.15;;;6.43;;
26612;SDS011;14248;57.652;11.908;2023-04-15T08:02:31;10.13;;;6.63;;
26612;SDS011;14248;57.652;11.908;2023-04-15T08:04:57;9.38;;;6.45;;
26612;SDS011;14248;57.652;11.908;2023-04-15T08:07:24;11.60;;;6.88;;
26612;SDS011;14248;57.652;11.908;2023-04-15T08:09:50;10.27;;;7.03;;
26612;SDS011;14248;57.652;11.908;2023-04-15T08:12:16;9.43;;;6.30;;
26612;SDS011;14248;57.652;11.908;2023-04-15T08:14:42;11.50;;;7.15;;
26612;SDS011;14248;57.652;11.908;2023-04-15T08:17:08;13.73;;;6.78;;
26612;SDS011;14248;57.652;11.908;2023-04-15T08:19:34;11.02;;;7.32;;
26612;SDS011;14248;57.652;11.908;2023-04-15T08:22:00;10.73;;;6.93;;
26612;SDS011;14248;57.652;11.908;2023-04-15T08:24:26;10.90;;;6.55;;
26612;SDS011;14248;57.652;11.908;2023-04-15T08:26:54;10.20;;;7.55;;
26612;SDS011;14248;57.652;11.908;2023-04-15T08:29:21;9.02;;;6.32;;
26612;SDS011;14248;57.652;11.908;2023-04-15T08:31:47;8.25;;;6.18;;
26612;SDS011;14248;57.652;11.908;2023-04-15T08:34:13;10.32;;;6.18;;
26612;SDS011;14248;57.652;11.908;2023-04-15T08:36:41;7.72;;;6.00;;
26612;SDS011;14248;57.652;11.908;2023-04-15T08:39:07;9.02;;;5.95;;
26612;SDS011;14248;57.652;11.908;2023-04-15T08:41:35;11.25;;;6.35;;
26612;SDS011;14248;57.652;11.908;2023-04-15T08:44:04;8.95;;;6.43;;
26612;SDS011;14248;57.652;11.908;2023-04-15T08:46:30;9.05;;;6.70;;
26612;SDS011;14248;57.652;11.908;2023-04-15T08:48:58;11.25;;;6.43;;
26612;SDS011;14248;57.652;11.908;2023-04-15T08:51:25;11.75;;;6.60;;
26612;SDS011;14248;57.652;11.908;2023-04-15T08:53:51;12.90;;;6.82;;
26612;SDS011;14248;57.652;11.908;2023-04-15T08:56:17;9.52;;;6.20;;
26612;SDS011;14248;57.652;11.908;2023-04-15T08:58:44;9.20;;;5.70;;
26612;SDS011;14248;57.652;11.908;2023-04-15T09:01:11;8.68;;;5.55;;
26612;SDS011;14248;57.652;11.908;2023-04-15T09:03:38;9.85;;;5.93;;
26612;SDS011;14248;57.652;11.908;2023-04-15T09:06:05;7.80;;;6.03;;
26612;SDS011;14248;57.652;11.908;2023-04-15T09:08:31;10.32;;;6.00;;
26612;SDS011;14248;57.652;11.908;2023-04-15T09:11:04;9.90;;;5.90;;
26612;SDS011;14248;57.652;11.908;2023-04-15T09:13:30;12.45;;;6.30;;
26612;SDS011;14248;57.652;11.908;2023-04-15T09:15:56;10.25;;;6.32;;
26612;SDS011;14248;57.652;11.908;2023-04-15T09:18:26;11.63;;;6.38;;
26612;SDS011;14248;57.652;11.908;2023-04-15T09:20:54;8.98;;;6.43;;
26612;SDS011;14248;57.652;11.908;2023-04-15T09:23:20;12.02;;;6.40;;
26612;SDS011;14248;57.652;11.908;2023-04-15T09:25:46;11.85;;;6.35;;
26612;SDS011;14248;57.652;11.908;2023-04-15T09:28:13;8.70;;;6.40;;
26612;SDS011;14248;57.652;11.908;2023-04-15T09:30:41;9.02;;;6.13;;
26612;SDS011;14248;57.652;11.908;2023-04-15T09:33:13;10.57;;;6.07;;
26612;SDS011;14248;57.652;11.908;2023-04-15T09:35:39;10.40;;;6.72;;
26612;SDS011;14248;57.652;11.908;2023-04-15T09:38:06;7.35;;;5.75;;
26612;SDS011;14248;57.652;11.908;2023-04-15T09:40:39;9.65;;;5.53;;
26612;SDS011;14248;57.652;11.908;2023-04-15T09:43:06;9.48;;;5.38;;
26612;SDS011;14248;57.652;11.908;2023-04-15T09:45:33;10.75;;;5.70;;
26612;SDS011;14248;57.652;11.908;2023-04-15T09:48:16;8.68;;;5.30;;
26612;SDS011;14248;57.652;11.908;2023-04-15T09:50:42;10.93;;;5.85;;
26612;SDS011;14248;57.652;11.908;2023-04-15T09:53:09;10.55;;;5.97;;
26612;SDS011;14248;57.652;11.908;2023-04-15T09:55:38;8.40;;;5.30;;
26612;SDS011;14248;57.652;11.908;2023-04-15T09:58:08;8.77;;;5.30;;
26612;SDS011;14248;57.652;11.908;2023-04-15T10:00:42;7.65;;;5.38;;
26612;SDS011;14248;57.652;11.908;2023-04-15T10:03:08;8.27;;;5.18;;
26612;SDS011;14248;57.652;11.908;2023-04-15T10:05:35;8.43;;;5.47;;
26612;SDS011;14248;57.652;11.908;2023-04-15T10:08:02;7.50;;;4.97;;
26612;SDS011;14248;57.652;11.908;2023-04-15T10:10:28;7.78;;;5.28;;
26612;SDS011;14248;57.652;11.908;2023-04-15T10:12:54;9.40;;;5.43;;
26612;SDS011;14248;57.652;11.908;2023-04-15T10:15:21;7.60;;;5.45;;
26612;SDS011;14248;57.652;11.908;2023-04-15T10:17:48;8.13;;;5.10;;
26612;SDS011;14248;57.652;11.908;2023-04-15T10:20:15;7.70;;;4.65;;
26612;SDS011;14248;57.652;11.908;2023-04-15T10:22:42;6.45;;;4.80;;
26612;SDS011;14248;57.652;11.908;2023-04-15T10:25:10;8.95;;;4.97;;
26612;SDS011;14248;57.652;11.908;2023-04-15T10:27:38;6.72;;;5.20;;
26612;SDS011;14248;57.652;11.908;2023-04-15T10:30:06;8.82;;;5.70;;
26612;SDS011;14248;57.652;11.908;2023-04-15T10:32:33;8.40;;;5.78;;
26612;SDS011;14248;57.652;11.908;2023-04-15T10:34:59;6.78;;;4.90;;
26612;SDS011;14248;57.652;11.908;2023-04-15T10:37:35;8.20;;;5.40;;
26612;SDS011;14248;57.652;11.908;2023-04-15T10:40:22;7.05;;;5.07;;
26612;SDS011;14248;57.652;11.908;2023-04-15T10:42:47;12.02;;;5.60;;
26612;SDS011;14248;57.652;11.908;2023-04-15T10:45:17;7.60;;;5.22;;
26612;SDS011;14248;57.652;11.908;2023-04-15T10:47:44;9.75;;;5.57;;
26612;SDS011;14248;57.652;11.908;2023-04-15T10:50:10;7.63;;;5.35;;
26612;SDS011;14248;57.652;11.908;2023-04-15T10:52:38;6.68;;;4.57;;
26612;SDS011;14248;57.652;11.908;2023-04-15T10:57:36;7.80;;;5.22;;
26612;SDS011;14248;57.652;11.908;2023-04-15T11:02:58;8.20;;;5.35;;
26612;SDS011;14248;57.652;11.908;2023-04-15T11:08:16;7.65;;;5.85;;
26612;SDS011;14248;57.652;11.908;2023-04-15T11:15:38;9.65;;;6.07;;
26612;SDS011;14248;57.652;11.908;2023-04-15T11:18:19;6.72;;;5.68;;
26612;SDS011;14248;57.652;11.908;2023-04-15T11:20:48;8.00;;;5.60;;
26612;SDS011;14248;57.652;11.908;2023-04-15T11:23:17;7.85;;;5.40;;
26612;SDS011;14248;57.652;11.908;2023-04-15T11:25:43;7.38;;;5.05;;
26612;SDS011;14248;57.652;11.908;2023-04-15T11:28:10;8.10;;;5.30;;
26612;SDS011;14248;57.652;11.908;2023-04-15T11:30:36;8.35;;;5.60;;
26612;SDS011;14248;57.652;11.908;2023-04-15T11:33:07;10.55;;;7.93;;
26612;SDS011;14248;57.652;11.908;2023-04-15T11:35:35;10.55;;;7.70;;
26612;SDS011;14248;57.652;11.908;2023-04-15T11:38:02;9.68;;;6.88;;
26612;SDS011;14248;57.652;11.908;2023-04-15T11:40:28;7.88;;;6.07;;
26612;SDS011;14248;57.652;11.908;2023-04-15T11:45:34;9.68;;;7.65;;
26612;SDS011;14248;57.652;11.908;2023-04-15T11:48:07;8.38;;;7.00;;
26612;SDS011;14248;57.652;11.908;2023-04-15T11:50:34;9.68;;;7.07;;
26612;SDS011;14248;57.652;11.908;2023-04-15T11:53:01;8.13;;;6.47;;
26612;SDS011;14248;57.652;11.908;2023-04-15T11:55:30;8.93;;;5.88;;
26612;SDS011;14248;57.652;11.908;2023-04-15T11:58:07;6.80;;;5.30;;
26612;SDS011;14248;57.652;11.908;2023-04-15T12:00:34;6.78;;;4.80;;
26612;SDS011;14248;57.652;11.908;2023-04-15T12:13:47;12.90;;;9.25;;
26612;SDS011;14248;57.652;11.908;2023-04-15T12:16:19;9.30;;;7.22;;
26612;SDS011;14248;57.652;11.908;2023-04-15T12:18:46;9.80;;;7.40;;
26612;SDS011;14248;57.652;11.908;2023-04-15T12:21:12;7.22;;;6.30;;
26612;SDS011;14248;57.652;11.908;2023-04-15T12:23:46;6.25;;;5.65;;
26612;SDS011;14248;57.652;11.908;2023-04-15T12:26:16;6.00;;;5.25;;
26612;SDS011;14248;57.652;11.908;2023-04-15T12:28:43;5.78;;;5.15;;
26612;SDS011;14248;57.652;11.908;2023-04-15T12:31:09;5.13;;;4.53;;
26612;SDS011;14248;57.652;11.908;2023-04-15T12:33:37;5.40;;;4.80;;
26612;SDS011;14248;57.652;11.908;2023-04-15T12:36:03;7.32;;;4.90;;
26612;SDS011;14248;57.652;11.908;2023-04-15T12:38:30;6.50;;;4.85;;
26612;SDS011;14248;57.652;11.908;2023-04-15T12:40:56;5.13;;;4.50;;
26612;SDS011;14248;57.652;11.908;2023-04-15T12:43:24;6.30;;;4.55;;
26612;SDS011;14248;57.652;11.908;2023-04-15T12:45:49;5.57;;;4.47;;
26612;SDS011;14248;57.652;11.908;2023-04-15T12:48:15;4.90;;;4.40;;
26612;SDS011;14248;57.652;11.908;2023-04-15T12:50:41;5.15;;;4.63;;
26612;SDS011;14248;57.652;11.908;2023-04-15T12:53:06;5.47;;;4.75;;
26612;SDS011;14248;57.652;11.908;2023-04-15T12:55:33;5.85;;;4.70;;
26612;SDS011;14248;57.652;11.908;2023-04-15T12:57:59;6.60;;;5.00;;
26612;SDS011;14248;57.652;11.908;2023-04-15T13:00:26;6.03;;;4.68;;
26612;SDS011;14248;57.652;11.908;2023-04-15T13:02:53;5.75;;;4.30;;
26612;SDS011;14248;57.652;11.908;2023-04-15T13:05:19;4.40;;;3.97;;
26612;SDS011;14248;57.652;11.908;2023-04-15T13:07:45;4.97;;;4.03;;
26612;SDS011;14248;57.652;11.908;2023-04-15T13:10:11;5.45;;;4.57;;
26612;SDS011;14248;57.652;11.908;2023-04-15T13:12:37;6.32;;;3.90;;
26612;SDS011;14248;57.652;11.908;2023-04-15T13:15:03;4.10;;;3.70;;
26612;SDS011;14248;57.652;11.908;2023-04-15T13:17:29;5.28;;;4.10;;
26612;SDS011;14248;57.652;11.908;2023-04-15T13:19:55;5.63;;;4.22;;
26612;SDS011;14248;57.652;11.908;2023-04-15T13:22:23;6.80;;;4.72;;
26612;SDS011;14248;57.652;11.908;2023-04-15T13:24:48;5.50;;;4.07;;
26612;SDS011;14248;57.652;11.908;2023-04-15T13:27:15;7.15;;;4.40;;
26612;SDS011;14248;57.652;11.908;2023-04-15T13:29:41;6.63;;;4.60;;
26612;SDS011;14248;57.652;11.908;2023-04-15T13:32:07;7.63;;;4.50;;
26612;SDS011;14248;57.652;11.908;2023-04-15T13:34:33;4.30;;;3.90;;
26612;SDS011;14248;57.652;11.908;2023-04-15T13:37:05;4.20;;;3.33;;
26612;SDS011;14248;57.652;11.908;2023-04-15T13:39:31;3.88;;;3.47;;
26612;SDS011;14248;57.652;11.908;2023-04-15T13:41:57;4.75;;;3.60;;
26612;SDS011;14248;57.652;11.908;2023-04-15T13:44:23;3.10;;;2.90;;
26612;SDS011;14248;57.652;11.908;2023-04-15T13:46:49;5.47;;;3.25;;
26612;SDS011;14248;57.652;11.908;2023-04-15T13:49:15;3.38;;;3.03;;
26612;SDS011;14248;57.652;11.908;2023-04-15T13:51:41;3.65;;;3.35;;
26612;SDS011;14248;57.652;11.908;2023-04-15T13:54:08;3.83;;;3.30;;
26612;SDS011;14248;57.652;11.908;2023-04-15T13:56:34;3.92;;;3.15;;
26612;SDS011;14248;57.652;11.908;2023-04-15T13:59:00;3.97;;;3.05;;
26612;SDS011;14248;57.652;11.908;2023-04-15T14:01:27;4.07;;;3.40;;
26612;SDS011;14248;57.652;11.908;2023-04-15T14:03:53;3.67;;;3.38;;
26612;SDS011;14248;57.652;11.908;2023-04-15T14:06:19;3.10;;;2.80;;
26612;SDS011;14248;57.652;11.908;2023-04-15T14:08:45;3.25;;;2.90;;
26612;SDS011;14248;57.652;11.908;2023-04-15T14:11:10;3.00;;;2.80;;
26612;SDS011;14248;57.652;11.908;2023-04-15T14:13:36;3.22;;;2.90;;
26612;SDS011;14248;57.652;11.908;2023-04-15T14:16:02;3.72;;;2.65;;
26612;SDS011;14248;57.652;11.908;2023-04-15T14:18:28;4.55;;;3.13;;
26612;SDS011;14248;57.652;11.908;2023-04-15T14:20:54;4.90;;;3.45;;
26612;SDS011;14248;57.652;11.908;2023-04-15T14:23:20;3.88;;;3.42;;
26612;SDS011;14248;57.652;11.908;2023-04-15T14:25:46;4.18;;;3.78;;
26612;SDS011;14248;57.652;11.908;2023-04-15T14:28:12;4.40;;;3.03;;
26612;SDS011;14248;57.652;11.908;2023-04-15T14:30:38;3.10;;;2.80;;
26612;SDS011;14248;57.652;11.908;2023-04-15T14:33:04;4.35;;;2.90;;
26612;SDS011;14248;57.652;11.908;2023-04-15T14:35:30;3.20;;;2.90;;
26612;SDS011;14248;57.652;11.908;2023-04-15T14:38:01;3.00;;;2.70;;
26612;SDS011;14248;57.652;11.908;2023-04-15T14:40:27;3.28;;;2.55;;
26612;SDS011;14248;57.652;11.908;2023-04-15T14:42:52;3.10;;;2.50;;
26612;SDS011;14248;57.652;11.908;2023-04-15T14:45:18;2.85;;;2.58;;
26612;SDS011;14248;57.652;11.908;2023-04-15T14:47:44;3.33;;;2.70;;
26612;SDS011;14248;57.652;11.908;2023-04-15T14:50:09;3.17;;;2.47;;
26612;SDS011;14248;57.652;11.908;2023-04-15T14:52:35;3.50;;;2.60;;
26612;SDS011;14248;57.652;11.908;2023-04-15T14:55:07;4.07;;;2.72;;
26612;SDS011;14248;57.652;11.908;2023-04-15T14:57:34;3.28;;;2.78;;
26612;SDS011;14248;57.652;11.908;2023-04-15T15:00:02;2.60;;;2.40;;
26612;SDS011;14248;57.652;11.908;2023-04-15T15:02:28;2.50;;;2.30;;